Time;durP1;ratioP1;P1;durP2;ratioP2;P2;SDS_P1;SDS_P2;PMS_P1;PMS_P2;Temp;Humidity;BMP_temperature;BMP_pressure;BME280_temperature;BME280_humidity;BME280_pressure;Samples;Min_cycle;Max_cycle;Signal;HPM_P1;HPM_P2
2021/03/15 12:57:31;;;;;;;4.18;1.92;;;;;;;;;;5124275;27;20306;-74
2021/03/15 12:59:58;;;;;;;1.63;1.15;;;;;;;;;;5117354;28;20029;-75
2021/03/15 13:02:24;;;;;;;2.88;1.30;;;;;;;;;;5122876;27;20034;-75
2021/03/15 13:04:50;;;;;;;1.63;0.80;;;;;;;;;;5123426;28;20023;-75
2021/03/15 13:07:16;;;;;;;2.70;1.52;;;;;;;;;;5119778;28;20461;-76
2021/03/15 13:09:42;;;;;;;1.70;1.10;;;;;;;;;;5125070;27;20470;-75
2021/03/15 13:12:08;;;;;;;1.23;0.82;;;;;;;;;;5121998;28;20027;-76
2021/03/15 13:14:34;;;;;;;2.70;0.60;;;;;;;;;;5124460;27;20041;-75
2021/03/15 13:17:00;;;;;;;1.40;0.80;;;;;;;;;;5123540;27;20106;-75
2021/03/15 13:19:26;;;;;;;0.98;0.63;;;;;;;;;;5123114;28;20045;-77
2021/03/15 13:21:53;;;;;;;2.17;0.60;;;;;;;;;;5123367;27;20027;-75
2021/03/15 13:24:19;;;;;;;2.47;0.95;;;;;;;;;;5126153;28;20035;-76
2021/03/15 13:26:45;;;;;;;3.28;0.70;;;;;;;;;;5109832;28;20100;-77
2021/03/15 13:29:11;;;;;;;3.85;0.82;;;;;;;;;;5124578;27;20080;-76
2021/03/15 13:31:37;;;;;;;2.97;0.80;;;;;;;;;;5128112;27;20038;-77
2021/03/15 13:34:03;;;;;;;8.43;3.90;;;;;;;;;;5126397;27;20028;-77
2021/03/15 13:36:29;;;;;;;15.90;6.03;;;;;;;;;;5128976;27;20132;-77
2021/03/15 13:38:55;;;;;;;11.70;5.30;;;;;;;;;;5125188;28;20136;-76
2021/03/15 13:41:21;;;;;;;5.60;1.85;;;;;;;;;;5124268;27;20039;-76
2021/03/15 13:43:47;;;;;;;3.65;1.15;;;;;;;;;;5124987;28;20035;-76
2021/03/15 13:46:13;;;;;;;1.38;0.98;;;;;;;;;;5127288;27;20035;-76
2021/03/15 13:48:39;;;;;;;1.58;0.60;;;;;;;;;;5134682;27;20035;-76
2021/03/15 13:51:05;;;;;;;2.95;0.90;;;;;;;;;;5128652;28;20044;-76
2021/03/15 13:53:31;;;;;;;3.72;0.80;;;;;;;;;;5133030;27;20156;-76
2021/03/15 13:55:57;;;;;;;1.77;1.00;;;;;;;;;;5125844;28;20032;-76
2021/03/15 13:58:23;;;;;;;1.55;0.80;;;;;;;;;;5126365;27;20031;-76
2021/03/15 14:00:49;;;;;;;1.55;0.50;;;;;;;;;;5123310;28;20034;-76
2021/03/15 14:03:15;;;;;;;1.42;0.60;;;;;;;;;;5124451;28;20068;-75
2021/03/15 14:05:41;;;;;;;1.30;0.70;;;;;;;;;;5123693;27;20151;-77
2021/03/15 14:08:08;;;;;;;5.32;0.80;;;;;;;;;;5115845;28;20023;-76
2021/03/15 14:10:34;;;;;;;3.15;0.95;;;;;;;;;;5113695;28;20032;-77
2021/03/15 14:13:00;;;;;;;2.10;0.73;;;;;;;;;;5112184;28;20030;-77
2021/03/15 14:15:26;;;;;;;2.38;1.10;;;;;;;;;;5110311;28;20059;-77
2021/03/15 14:17:52;;;;;;;1.33;0.70;;;;;;;;;;5112508;28;20020;-77
2021/03/15 14:20:18;;;;;;;1.60;0.60;;;;;;;;;;5114329;28;20051;-76
2021/03/15 14:22:44;;;;;;;1.63;0.57;;;;;;;;;;5108008;28;20020;-76
2021/03/15 14:25:14;;;;;;;1.27;0.60;;;;;;;;;;5113524;28;20024;-76
2021/03/15 14:27:41;;;;;;;4.13;0.60;;;;;;;;;;5111700;28;20024;-77
2021/03/15 14:30:07;;;;;;;1.42;0.60;;;;;;;;;;5109375;28;20031;-75
2021/03/15 14:32:33;;;;;;;1.85;0.73;;;;;;;;;;5093183;28;20048;-77
2021/03/15 14:35:00;;;;;;;4.38;0.93;;;;;;;;;;5112188;28;20059;-75
2021/03/15 14:37:26;;;;;;;2.08;0.55;;;;;;;;;;5112998;28;20515;-75
2021/03/15 14:39:52;;;;;;;2.72;0.70;;;;;;;;;;5113045;28;20035;-75
2021/03/15 14:42:18;;;;;;;2.70;0.82;;;;;;;;;;5111438;27;20054;-75
2021/03/15 14:44:44;;;;;;;2.50;0.90;;;;;;;;;;5114143;28;20076;-76
2021/03/15 14:47:10;;;;;;;2.30;0.85;;;;;;;;;;5112491;28;20035;-76
2021/03/15 14:49:36;;;;;;;3.20;0.95;;;;;;;;;;5114179;28;20373;-76
2021/03/15 14:52:02;;;;;;;3.42;0.70;;;;;;;;;;5093013;28;20126;-76
2021/03/15 14:54:28;;;;;;;1.85;0.52;;;;;;;;;;5113729;28;20504;-76
2021/03/15 14:56:54;;;;;;;2.33;0.50;;;;;;;;;;5112545;28;20032;-75
2021/03/15 14:59:21;;;;;;;3.75;0.55;;;;;;;;;;5110201;28;20038;-75
2021/03/15 15:01:47;;;;;;;1.85;0.47;;;;;;;;;;5110907;28;20106;-76
2021/03/15 15:04:13;;;;;;;1.42;0.40;;;;;;;;;;5107788;28;20441;-76
2021/03/15 15:06:39;;;;;;;1.50;0.47;;;;;;;;;;5112561;28;20098;-77
2021/03/15 15:09:05;;;;;;;1.60;0.47;;;;;;;;;;5114967;28;20024;-76
2021/03/15 15:11:31;;;;;;;1.58;0.50;;;;;;;;;;5112442;28;20031;-76
2021/03/15 15:13:59;;;;;;;1.63;0.43;;;;;;;;;;5111207;28;20058;-76
2021/03/15 15:16:25;;;;;;;1.45;0.55;;;;;;;;;;5111743;27;20476;-77
2021/03/15 15:18:51;;;;;;;0.80;0.40;;;;;;;;;;5112047;28;20059;-77
2021/03/15 15:21:17;;;;;;;2.92;0.50;;;;;;;;;;5113246;28;20027;-76
2021/03/15 15:23:43;;;;;;;2.92;0.60;;;;;;;;;;5107486;27;20094;-76
2021/03/15 15:26:09;;;;;;;3.90;0.77;;;;;;;;;;5111040;28;20057;-76
2021/03/15 15:28:36;;;;;;;2.90;0.50;;;;;;;;;;5109128;28;20050;-77
2021/03/15 15:31:02;;;;;;;1.38;0.40;;;;;;;;;;5110047;28;20107;-76
2021/03/15 15:33:28;;;;;;;2.60;0.90;;;;;;;;;;5110952;28;20035;-76
2021/03/15 15:35:54;;;;;;;1.35;0.73;;;;;;;;;;5111390;28;20039;-76
2021/03/15 15:38:20;;;;;;;1.10;0.38;;;;;;;;;;5110972;28;20043;-77
2021/03/15 15:40:46;;;;;;;2.08;0.40;;;;;;;;;;5111938;28;20035;-74
2021/03/15 15:43:12;;;;;;;1.63;0.50;;;;;;;;;;5109603;28;20493;-76
2021/03/15 15:45:38;;;;;;;1.45;0.60;;;;;;;;;;5111479;28;20499;-76
2021/03/15 15:48:04;;;;;;;2.58;0.98;;;;;;;;;;5105587;28;20032;-76
2021/03/15 15:50:31;;;;;;;4.35;1.38;;;;;;;;;;5106412;28;20032;-76
2021/03/15 15:52:57;;;;;;;2.78;1.00;;;;;;;;;;5111955;28;20023;-76
2021/03/15 15:55:24;;;;;;;1.58;0.50;;;;;;;;;;5110255;28;20028;-75
2021/03/15 15:57:50;;;;;;;1.15;0.20;;;;;;;;;;5113078;28;20019;-76
2021/03/15 16:00:16;;;;;;;2.38;0.85;;;;;;;;;;5114687;28;20016;-79
2021/03/15 16:02:43;;;;;;;1.23;0.45;;;;;;;;;;5111233;28;20110;-77
2021/03/15 16:05:09;;;;;;;3.25;1.30;;;;;;;;;;5113385;28;20102;-77
2021/03/15 16:07:35;;;;;;;1.48;0.35;;;;;;;;;;5109857;28;20027;-75
2021/03/15 16:10:01;;;;;;;1.08;0.50;;;;;;;;;;5111616;28;20047;-75
2021/03/15 16:12:27;;;;;;;1.60;0.68;;;;;;;;;;5112824;28;20098;-76
2021/03/15 16:14:53;;;;;;;1.40;0.52;;;;;;;;;;5114081;28;20063;-76
2021/03/15 16:17:20;;;;;;;1.38;0.70;;;;;;;;;;5116734;28;20028;-77
2021/03/15 16:19:47;;;;;;;1.52;0.73;;;;;;;;;;5112624;28;20020;-75
2021/03/15 16:22:14;;;;;;;3.72;1.02;;;;;;;;;;5111332;28;20028;-75
2021/03/15 16:24:40;;;;;;;4.60;1.05;;;;;;;;;;5111973;28;20028;-76
2021/03/15 16:27:08;;;;;;;2.90;1.00;;;;;;;;;;5111395;28;20028;-75
2021/03/15 16:29:35;;;;;;;2.17;1.40;;;;;;;;;;5110662;28;20028;-77
2021/03/15 16:32:01;;;;;;;3.72;2.33;;;;;;;;;;5111174;28;20103;-76
2021/03/15 16:34:28;;;;;;;1.88;1.20;;;;;;;;;;5111532;28;20024;-76
2021/03/15 16:36:54;;;;;;;5.57;1.48;;;;;;;;;;5113003;28;20114;-78
2021/03/15 16:39:20;;;;;;;7.32;4.38;;;;;;;;;;5112061;28;20062;-76
2021/03/15 16:41:46;;;;;;;1.73;1.10;;;;;;;;;;5111081;28;20027;-77
2021/03/15 16:44:12;;;;;;;3.85;1.30;;;;;;;;;;5111275;28;20023;-77
2021/03/15 16:46:38;;;;;;;2.17;1.00;;;;;;;;;;5111400;28;20015;-76
2021/03/15 16:49:04;;;;;;;2.72;1.10;;;;;;;;;;5109061;28;20031;-76
2021/03/15 16:51:30;;;;;;;2.30;1.20;;;;;;;;;;5111208;28;20397;-76
2021/03/15 16:53:56;;;;;;;3.25;0.75;;;;;;;;;;5108857;28;20031;-76
2021/03/15 16:56:22;;;;;;;1.20;0.88;;;;;;;;;;5093007;28;20035;-76
2021/03/15 16:58:48;;;;;;;2.75;0.73;;;;;;;;;;5093561;28;20028;-76
2021/03/15 17:01:14;;;;;;;4.40;0.80;;;;;;;;;;5109659;28;20028;-76
2021/03/15 17:03:40;;;;;;;3.45;0.68;;;;;;;;;;5111280;28;20023;-75
2021/03/15 17:06:06;;;;;;;2.60;0.50;;;;;;;;;;5108391;28;20031;-76
2021/03/15 17:08:32;;;;;;;1.73;0.63;;;;;;;;;;5110191;28;20059;-75
2021/03/15 17:10:58;;;;;;;0.80;0.43;;;;;;;;;;5111097;28;20050;-76
2021/03/15 17:13:24;;;;;;;1.73;0.85;;;;;;;;;;5104291;28;20040;-75
2021/03/15 17:15:50;;;;;;;1.45;0.70;;;;;;;;;;5102208;28;20038;-75
2021/03/15 17:18:16;;;;;;;2.42;0.88;;;;;;;;;;5111292;28;20073;-76
2021/03/15 17:20:43;;;;;;;2.28;0.50;;;;;;;;;;5109938;28;20875;-76
2021/03/15 17:23:09;;;;;;;1.63;0.50;;;;;;;;;;5099666;28;20025;-75
2021/03/15 17:25:36;;;;;;;0.98;0.60;;;;;;;;;;5110948;28;20668;-77
2021/03/15 17:28:02;;;;;;;0.70;0.60;;;;;;;;;;5095171;28;20036;-75
2021/03/15 17:30:30;;;;;;;0.85;0.45;;;;;;;;;;5110045;28;20052;-77
2021/03/15 17:32:56;;;;;;;0.90;0.50;;;;;;;;;;5106590;28;20024;-75
2021/03/15 17:35:22;;;;;;;3.05;0.88;;;;;;;;;;5106282;28;20472;-75
2021/03/15 17:37:49;;;;;;;1.15;0.60;;;;;;;;;;5110453;28;20042;-77
2021/03/15 17:40:15;;;;;;;1.63;0.45;;;;;;;;;;5105830;28;20028;-76
2021/03/15 17:42:41;;;;;;;2.55;1.20;;;;;;;;;;5111553;28;20384;-76
2021/03/15 17:45:08;;;;;;;1.15;0.63;;;;;;;;;;5114158;28;20031;-76
2021/03/15 17:47:34;;;;;;;1.55;0.52;;;;;;;;;;5108033;28;20036;-76
2021/03/15 17:50:00;;;;;;;1.45;0.65;;;;;;;;;;5113034;28;20031;-76
2021/03/15 17:52:26;;;;;;;1.65;0.60;;;;;;;;;;5102151;28;20043;-75
2021/03/15 17:54:52;;;;;;;1.73;0.90;;;;;;;;;;5102858;28;20042;-75
2021/03/15 17:57:20;;;;;;;1.17;0.68;;;;;;;;;;5103115;28;20028;-76
2021/03/15 17:59:46;;;;;;;1.13;0.73;;;;;;;;;;5102811;28;20399;-76
2021/03/15 18:02:12;;;;;;;2.15;0.60;;;;;;;;;;5093540;28;20024;-76
2021/03/15 18:04:38;;;;;;;2.80;0.70;;;;;;;;;;5106333;28;20030;-76
2021/03/15 18:07:04;;;;;;;4.03;1.65;;;;;;;;;;5112476;28;20058;-76
2021/03/15 18:09:30;;;;;;;2.45;0.70;;;;;;;;;;5094604;28;20028;-76
2021/03/15 18:11:56;;;;;;;1.63;0.68;;;;;;;;;;5102092;28;20575;-76
2021/03/15 18:14:22;;;;;;;1.33;0.80;;;;;;;;;;5112471;27;20031;-76
2021/03/15 18:16:49;;;;;;;1.25;0.80;;;;;;;;;;5113578;28;20039;-76
2021/03/15 18:19:15;;;;;;;2.00;1.00;;;;;;;;;;5099757;28;20516;-75
2021/03/15 18:21:42;;;;;;;4.57;0.90;;;;;;;;;;5112388;28;20633;-77
2021/03/15 18:24:08;;;;;;;1.20;0.63;;;;;;;;;;5114302;28;20049;-76
2021/03/15 18:26:37;;;;;;;1.92;0.70;;;;;;;;;;5110495;28;20039;-75
2021/03/15 18:29:07;;;;;;;4.28;0.90;;;;;;;;;;5109255;28;20516;-76
2021/03/15 18:31:34;;;;;;;3.20;1.05;;;;;;;;;;5112143;28;20042;-76
2021/03/15 18:34:00;;;;;;;1.67;0.82;;;;;;;;;;5095260;28;20016;-76
2021/03/15 18:36:26;;;;;;;2.80;0.82;;;;;;;;;;5096515;28;20485;-76
2021/03/15 18:38:52;;;;;;;2.53;0.90;;;;;;;;;;5092509;28;20123;-76
2021/03/15 18:41:18;;;;;;;1.05;0.80;;;;;;;;;;5093639;28;20103;-75
2021/03/15 18:43:44;;;;;;;2.72;1.05;;;;;;;;;;5093628;28;20028;-76
2021/03/15 18:46:10;;;;;;;2.13;1.00;;;;;;;;;;5093504;28;20023;-76
2021/03/15 18:48:36;;;;;;;1.48;0.70;;;;;;;;;;5093874;28;20058;-76
2021/03/15 18:51:04;;;;;;;2.33;0.80;;;;;;;;;;5092426;28;20032;-76
2021/03/15 18:53:30;;;;;;;6.30;0.80;;;;;;;;;;5094450;28;20112;-76
